WetterOnline ( https://www.wetteronline.de )

Wetter aktuell Südlohn

Aktuelles Wetter: Ahaus (46m)

6-stündlich | Neueste Meldungen
Ortszeit Temperatur Wetter
Mi, 19.02. 7:00 4.5° C wolkig
Mi, 19.02. 1:00 7.3° C bedeckt
Di, 18.02. 19:00 7.2° C bewölkt
Di, 18.02. 13:00 7.5° C bedeckt
Di, 18.02. 7:00 6.1° C bedeckt
Di, 18.02. 1:00 6.9° C bedeckt
Mo, 17.02. 19:00 7.0° C Sprühregen
Mo, 17.02. 13:00 10.2° C bewölkt
Ortszeit Temperatur Wetter
Mi, 19.02. 11:30 6.0° C bewölkt
Mi, 19.02. 11:20 6.0° C bewölkt
Mi, 19.02. 11:10 6.0° C bewölkt
Mi, 19.02. 11:00 5.9° C bedeckt
Mi, 19.02. 10:50 5.9° C bedeckt
Mi, 19.02. 10:40 5.6° C bedeckt
Mi, 19.02. 10:30 5.5° C wolkig
Mi, 19.02. 10:00 5.2° C wolkenlos
Mi, 19.02. 9:30 4.6° C wolkenlos
Mi, 19.02. 9:00 4.2° C leicht bewölkt
Mi, 19.02. 8:30 4.1° C wolkig
Ortszeit Relative Feuchte Sichtweite
Mi, 19.02. 7:00 91% 24 km
Mi, 19.02. 1:00 76% 35 km
Di, 18.02. 19:00 77% 29 km
Di, 18.02. 13:00 69% 29 km
Di, 18.02. 7:00 79% 27 km
Di, 18.02. 1:00 85% 29 km
Mo, 17.02. 19:00 81% 30 km
Mo, 17.02. 13:00 60% 25 km
Ortszeit Relative Feuchte Sichtweite
Mi, 19.02. 11:30 78% 23 km
Mi, 19.02. 11:20 78% -
Mi, 19.02. 11:10 78% -
Mi, 19.02. 11:00 80% 21 km
Mi, 19.02. 10:50 80% -
Mi, 19.02. 10:40 79% -
Mi, 19.02. 10:30 81% 25 km
Mi, 19.02. 10:00 81% 21 km
Mi, 19.02. 9:30 84% 23 km
Mi, 19.02. 9:00 87% 20 km
Mi, 19.02. 8:30 88% 24 km
Ortszeit Niederschlagsmenge Niederschlagsart
Mi, 19.02. 7:00 8 l/m2 in 12 Std. Regen
Mi, 19.02. 1:00 0.1 l/m2 in 6 Std. Regen
Di, 18.02. 19:00 0.1 l/m2 in 12 Std. Regen
Di, 18.02. 13:00 0.1 l/m2 in 6 Std. Sprühregen
Di, 18.02. 7:00 2 l/m2 in 12 Std. Regen
Di, 18.02. 1:00 1 l/m2 in 6 Std. Regen
Mo, 17.02. 19:00 2 l/m2 in 12 Std. Regen
Mo, 17.02. 13:00 0.0 l/m2 in 6 Std. -
Ortszeit Niederschlagsmenge Niederschlagsart
Mi, 19.02. 11:30 0.0 l/m2 in 1 Std. -
Mi, 19.02. 11:20 keine Meldung -
Mi, 19.02. 11:10 keine Meldung -
Mi, 19.02. 11:00 0.0 l/m2 in 1 Std. -
Mi, 19.02. 10:50 keine Meldung -
Mi, 19.02. 10:40 keine Meldung -
Mi, 19.02. 10:30 0.0 l/m2 in 1 Std. -
Mi, 19.02. 10:00 0.0 l/m2 in 1 Std. Regen
Mi, 19.02. 9:30 0.0 l/m2 in 1 Std. -
Mi, 19.02. 9:00 0.1 l/m2 in 1 Std. Regen
Mi, 19.02. 8:30 0.1 l/m2 in 1 Std. Schneeregen
Ortszeit Stärke Spitze Richtung
km/h Bft. km/h Grad Sektor
Mi, 19.02. 7:00 25 4 65 270° W
Mi, 19.02. 1:00 40 6 61 210° SW
Di, 18.02. 19:00 28 4 50 210° SW
Di, 18.02. 13:00 26 4 56 240° SW
Di, 18.02. 7:00 28 4 56 240° SW
Di, 18.02. 1:00 24 4 48 240° SW
Mo, 17.02. 19:00 22 4 69 220° SW
Mo, 17.02. 13:00 30 5 59 220° SW
Ortszeit Stärke Spitze Richtung
km/h Bft. km/h Grad Sektor
Mi, 19.02. 11:30 26 4 43 260° W
Mi, 19.02. 11:20 26 4 - 260° W
Mi, 19.02. 11:10 25 4 - 260° W
Mi, 19.02. 11:00 22 4 40 260° W
Mi, 19.02. 10:50 22 4 - 260° W
Mi, 19.02. 10:40 26 4 - 260° W
Mi, 19.02. 10:30 25 4 40 270° W
Mi, 19.02. 10:00 22 4 39 260° W
Mi, 19.02. 9:30 22 4 36 250° W
Mi, 19.02. 9:00 22 4 32 250° W
Mi, 19.02. 8:30 22 4 31 260° W
Ortszeit Untergrenze Bedeckung Gattung
total tief tief mittel hoch
Mi, 19.02. 7:00 660 m 7/8 3/8 - - -
Mi, 19.02. 1:00 750 m 8/8 8/8 - - -
Di, 18.02. 19:00 1020 m 7/8 7/8 - - -
Di, 18.02. 13:00 810 m 8/8 8/8 - - -
Di, 18.02. 7:00 690 m 8/8 8/8 - - -
Di, 18.02. 1:00 510 m 8/8 8/8 - - -
Mo, 17.02. 19:00 720 m 8/8 8/8 - - -
Mo, 17.02. 13:00 1170 m 7/8 6/8 - - -
Ortszeit Bedeckungsgrad in Achtel und Wolkenuntergrenze
Mi, 19.02. 11:30 3(630m) 5(840m) 7(1260m)
Mi, 19.02. 11:20 3(630m) 5(840m) 7(1260m)
Mi, 19.02. 11:10 2(570m) 4(690m) 7(1290m)
Mi, 19.02. 11:00 5(570m) 6(840m) 8(1230m)
Mi, 19.02. 10:50 5(570m) 6(840m) 8(1230m)
Mi, 19.02. 10:40 3(540m) 5(660m) 8(1170m)
Mi, 19.02. 10:30 2(570m) 5(1170m) 7(1170m)
Mi, 19.02. 10:00 keine Wolken
Mi, 19.02. 9:30 keine Wolken
Mi, 19.02. 9:00 2(780m)
Mi, 19.02. 8:30 2(570m) 4(750m) 5(870m)
Ortszeit Luftdruck NN (hPa) Tendenz (hPa in 3 Std.)
Mi, 19.02. 7:00 1013 + 2,2
Mi, 19.02. 1:00 1012 - 3,7
Di, 18.02. 19:00 1018 - 1,0
Di, 18.02. 13:00 1020 + 0,2
Di, 18.02. 7:00 1018 + 1,9
Di, 18.02. 1:00 1015 + 1,9
Mo, 17.02. 19:00 1012 + 1,3
Mo, 17.02. 13:00 1011 - 0,5
Ortszeit Luftdruck NN (hPa) Tendenz (hPa in 3 Std.)
Mi, 19.02. 11:30 1017 + 2,1
Mi, 19.02. 11:20 1017 keine Meldung
Mi, 19.02. 11:10 1017 keine Meldung
Mi, 19.02. 11:00 1017 + 2,5
Mi, 19.02. 10:50 1017 keine Meldung
Mi, 19.02. 10:40 1017 keine Meldung
Mi, 19.02. 10:30 1017 + 2,9
Mi, 19.02. 10:00 1016 + 2,7
Mi, 19.02. 9:30 1016 + 2,8
Mi, 19.02. 9:00 1015 + 3,0
Mi, 19.02. 8:30 1015 + 3,2
Ortszeit Schneehöhe (cm)
Mi, 19.02. 7:00 0
Mi, 19.02. 1:00 0
Di, 18.02. 19:00 0
Di, 18.02. 13:00 0
Di, 18.02. 7:00 0
Di, 18.02. 1:00 0
Mo, 17.02. 19:00 0
Mo, 17.02. 13:00 0
Ortszeit Schneehöhe (cm)
Mi, 19.02. 11:30 0
Mi, 19.02. 11:20 0
Mi, 19.02. 11:10 0
Mi, 19.02. 11:00 0
Mi, 19.02. 10:50 0
Mi, 19.02. 10:40 0
Mi, 19.02. 10:30 0
Mi, 19.02. 10:00 0
Mi, 19.02. 9:30 0
Mi, 19.02. 9:00 0
Mi, 19.02. 8:30 0
Link zu dieser Seite / Seite empfehlen

Das Wetter in ...